This is the latest recevied weather packets stored in our database for station/object KB4JAC-13. If no packets are shown the sender has not sent any weather packets the latest 10 day(s).
| Time | Temp. | Humidity | Pressure | Rain* | Wind** | Luminosity | Snow |
|---|---|---|---|---|---|---|---|
| 1788448323 | 33.33° C | 66% | 993.1 hPa | 0 mm | - | - | - |
| 1788447722 | 32.78° C | 69% | 993.1 hPa | 0 mm | - | - | - |
| 1788447121 | 31.67° C | 71% | 993.1 hPa | 0 mm | - | - | - |
| 1788446521 | 31.67° C | 71% | 993.1 hPa | 0 mm | - | - | - |
| 1788445920 | 32.22° C | 71% | 993 hPa | 0 mm | - | - | - |
| 1788445319 | 31.11° C | 74% | 993.1 hPa | 0 mm | - | - | - |
| 1788444718 | 30° C | 76% | 993.2 hPa | 0 mm | - | - | - |
| 1788444117 | 31.11° C | 73% | 993 hPa | 0 mm | - | - | - |
| 1788443516 | 30° C | 75% | 993.1 hPa | 0 mm | - | - | - |
| 1788442915 | 28.89° C | 79% | 993.1 hPa | 0 mm | - | - | - |
| 1788442314 | 28.33° C | 80% | 993.1 hPa | 0 mm | - | - | - |
| 1788441713 | 27.78° C | 83% | 993.2 hPa | 0 mm | - | - | - |
| 1788441112 | 27.78° C | 82% | 993 hPa | 0 mm | - | - | - |
| 1788440511 | 26.11° C | 85% | 993.1 hPa | 0 mm | - | - | - |
| 1788439910 | 24.44° C | 94% | 993.1 hPa | 0 mm | - | - | - |
| 1788439310 | 23.33° C | 97% | 993 hPa | 0 mm | - | - | - |
| 1788438709 | 22.78° C | 99% | 993.2 hPa | 0 mm | - | - | - |
| 1788438108 | 22.22° C | 99% | 993.2 hPa | 0 mm | - | - | - |
| 1788437507 | 22.22° C | 99% | 993 hPa | 0 mm | - | - | - |
| 1788436906 | 22.22° C | 99% | 992.8 hPa | 0 mm | - | - | - |
| 1788436307 | 21.67° C | 99% | 992.8 hPa | 0 mm | - | - | - |
| 1788435705 | 21.67° C | 99% | 992.7 hPa | 0 mm | - | - | - |
| 1788435104 | 21.67° C | 99% | 992.6 hPa | 0 mm | - | - | - |
| 1788433902 | 21.67° C | 99% | 992.4 hPa | 0 mm | - | - | - |
| 1788433301 | 21.67° C | 99% | 992.2 hPa | 0 mm | - | - | - |
* Rain since midnight (hover to see other rain measurements)
** Current wind speed in m/s (hover to see current wind gust speed)